Latest Weather Observations for Cape Jaffa

IDS60801

Issued at 5:31 pm CST Wednesday 31 August 2016 (issued every 30 minutes, with the page automatically refreshed every 10 minutes)

About weather observations | Map of weather stations | Latest weather observations for SA | Other Formats
Station Details ID: 026095 Name: THE LIMESTONE Lat: -36.97 Lon: 139.72 Height: 17.0 m
Data from the previous 72 hours. | See also: Recent months at Cape Jaffa
Date/Time
CST
Temp
°C
App
Temp
°C
Dew
Point
°C
Rel
Hum
%
Delta-T
°C
Wind Press
QNH
hPa
Press
MSL
hPa
Rain since
9am
mm
Dir  Spd
km/h
Gust
km/h
Spd
kts
Gust
kts
31/05:30pm 12.9 9.4 10.1 83 1.4 W 19 26 10 14 1016.1 1016.1 0.4
31/05:00pm 12.8 9.2 9.8 82 1.5 W 19 24 10 13 1015.9 1015.9 0.4
31/04:30pm 13.2 9.8 10.6 84 1.4 W 19 26 10 14 1015.6 1015.6 0.4
31/04:00pm 13.8 10.0 11.1 84 1.4 WNW 22 28 12 15 1015.5 1015.5 0.4
31/03:30pm 13.3 10.9 11.4 88 1.0 W 15 22 8 12 1015.5 1015.5 0.4
31/03:00pm 13.7 10.7 11.8 88 1.0 WNW 19 24 10 13 1015.4 1015.4 0.0
31/02:30pm 14.7 9.8 11.3 80 1.8 W 28 37 15 20 1015.2 1015.2 0.0
31/02:00pm 14.3 10.8 12.2 87 1.1 WNW 22 30 12 16 1015.3 1015.3 0.0
31/01:30pm 15.1 10.6 11.5 79 1.9 WNW 26 32 14 17 1014.9 1014.9 0.0
31/01:00pm 14.7 10.2 11.3 80 1.8 WNW 26 30 14 16 1015.1 1015.1 0.0
31/12:30pm 14.9 10.1 11.5 80 1.8 WNW 28 37 15 20 1015.2 1015.2 0.0
31/12:00pm 14.7 10.7 11.7 82 1.6 WNW 24 35 13 19 1015.5 1015.5 0.0
31/11:30am 15.0 10.4 11.2 78 2.0 WNW 26 37 14 20 1015.4 1015.4 0.0
31/11:00am 15.2 10.6 11.0 76 2.2 WNW 26 35 14 19 1015.4 1015.4 0.0
31/10:30am 15.2 11.5 11.6 79 1.9 WNW 22 28 12 15 1015.4 1015.4 0.0
31/10:00am 14.8 11.5 11.6 81 1.7 WNW 20 30 11 16 1015.3 1015.3 0.0
31/09:30am 14.4 10.1 10.8 79 1.9 WNW 24 32 13 17 1015.2 1015.2 0.0
31/09:00am 14.2 9.5 10.6 79 1.9 WNW 26 33 14 18 1015.1 1015.1 4.2
31/08:30am 13.7 10.4 11.0 84 1.4 WNW 19 28 10 15 1015.0 1015.0 4.2
31/08:00am 13.2 9.1 10.0 81 1.6 WNW 22 30 12 16 1014.4 1014.4 4.2
31/07:30am 13.1 9.5 9.7 80 1.7 WNW 19 22 10 12 1014.1 1014.1 4.2
31/07:00am 12.4 8.6 9.1 80 1.7 WNW 19 24 10 13 1013.7 1013.7 4.2
31/06:30am 11.9 8.0 8.6 80 1.6 WNW 19 26 10 14 1013.4 1013.4 4.2
31/06:00am 12.1 7.2 8.4 78 1.8 W 24 33 13 18 1013.0 1013.0 4.2
31/05:30am 12.1 7.4 9.3 83 1.4 W 24 32 13 17 1012.5 1012.5 4.2
31/05:00am 12.2 6.7 9.0 81 1.6 W 28 35 15 19 1012.2 1012.2 4.2
31/04:30am 12.1 9.1 10.5 90 0.8 WNW 17 22 9 12 1011.9 1011.9 4.2
31/04:00am 12.1 7.7 10.3 89 0.9 WNW 24 35 13 19 1011.7 1011.7 4.2
31/03:30am 12.3 8.4 10.7 90 0.8 WNW 22 30 12 16 1011.5 1011.5 3.8
31/03:00am 13.1 9.9 11.2 88 1.0 NW 19 26 10 14 1011.5 1011.5 3.2
31/02:30am 12.7 10.2 10.9 89 0.9 NW 15 20 8 11 1011.3 1011.3 3.2
31/02:00am 12.9 9.6 11.0 88 1.0 NW 19 22 10 12 1011.6 1011.6 3.2
31/01:30am 13.0 9.8 11.1 88 1.0 NW 19 26 10 14 1011.7 1011.7 3.2
31/01:00am 12.9 9.4 11.0 88 1.0 NW 20 28 11 15 1011.7 1011.7 3.2
31/12:30am 13.0 9.6 11.4 90 0.8 NNW 20 28 11 15 1011.5 1011.5 3.2
31/12:00am 13.2 9.8 11.3 88 1.0 NNW 20 26 11 14 1011.3 1011.3 3.2
 
Date/Time
CST
Temp
°C
App
Temp
°C
Dew
Point
°C
Rel
Hum
%
Delta-T
°C
Wind Press
QNH
hPa
Press
MSL
hPa
Rain since
9am
mm
Dir  Spd
km/h
Gust
km/h
Spd
kts
Gust
kts
30/11:30pm 13.8 10.2 11.7 87 1.1 NW 22 30 12 16 1011.2 1011.2 3.2
30/11:00pm 12.8 9.3 10.9 88 1.0 NNW 20 24 11 13 1011.1 1011.1 3.2
30/10:30pm 13.0 8.0 11.1 88 1.0 NNW 28 37 15 20 1011.0 1011.0 3.2
30/10:00pm 13.5 8.3 11.7 89 1.0 NNW 30 37 16 20 1010.9 1010.9 3.2
30/09:30pm 13.9 10.8 12.1 89 1.0 N 20 32 11 17 1011.3 1011.3 3.0
30/09:00pm 12.9 10.5 11.5 91 0.7 NNE 15 19 8 10 1011.2 1011.2 2.8
30/08:30pm 12.0 9.7 10.6 91 0.7 NE 13 15 7 8 1010.9 1010.9 2.8
30/08:00pm 12.0 9.7 10.6 91 0.7 NE 13 17 7 9 1010.9 1010.9 2.8
30/07:30pm 12.1 10.3 10.7 91 0.7 NE 11 13 6 7 1010.9 1010.9 2.8
30/07:00pm 12.2 10.3 10.6 90 0.8 ENE 11 11 6 6 1010.7 1010.7 2.8
30/06:30pm 12.8 11.4 11.0 89 0.9 NE 9 9 5 5 1010.7 1010.7 2.8
30/06:00pm 13.2 12.5 11.3 88 1.0 NNE 6 6 3 3 1010.5 1010.5 2.8
30/05:30pm 13.6 12.0 11.5 87 1.1 N 11 13 6 7 1010.3 1010.3 2.8
30/05:00pm 14.4 12.6 12.1 86 1.2 N 13 19 7 10 1010.0 1010.0 2.8
30/04:30pm 14.7 12.9 12.2 85 1.4 N 13 17 7 9 1009.9 1009.9 2.8
30/04:00pm 14.8 12.2 12.1 84 1.5 N 17 20 9 11 1009.8 1009.8 2.8
30/03:30pm 14.3 11.4 12.2 87 1.1 N 19 22 10 12 1010.2 1010.2 2.8
30/03:00pm 14.2 10.8 12.4 89 1.0 N 22 28 12 15 1010.3 1010.3 2.8
30/02:30pm 13.7 10.2 12.1 90 0.9 N 22 26 12 14 1010.4 1010.4 2.8
30/02:00pm 13.7 10.6 12.1 90 0.9 N 20 24 11 13 1010.4 1010.4 2.8
30/01:30pm 13.7 10.7 12.1 90 0.9 N 19 22 10 12 1010.4 1010.4 2.8
30/01:00pm 13.4 9.4 11.8 90 0.9 N 24 30 13 16 1010.5 1010.5 2.8
30/12:30pm 13.1 8.6 11.5 90 0.9 N 26 32 14 17 1010.6 1010.6 2.8
30/12:00pm 13.0 8.6 11.6 91 0.7 NNE 26 35 14 19 1010.9 1010.9 2.8
30/11:30am 12.7 8.6 11.3 91 0.7 NNE 24 30 13 16 1011.4 1011.4 2.8
30/11:00am 12.4 8.6 11.0 91 0.7 NNE 22 30 12 16 1012.0 1012.0 2.0
30/10:30am 12.4 8.1 10.6 89 0.9 NNE 24 32 13 17 1012.2 1012.2 0.2
30/10:00am 12.5 8.2 10.7 89 0.9 NE 24 35 13 19 1012.3 1012.3 0.2
30/09:30am 12.2 7.8 10.4 89 0.9 NE 24 32 13 17 1012.7 1012.7 0.0
30/09:00am 12.1 7.3 10.3 89 0.9 NE 26 37 14 20 1012.7 1012.7 8.6
30/08:30am 12.0 7.2 10.2 89 0.9 NE 26 35 14 19 1012.9 1012.9 8.6
30/08:00am 11.8 6.6 10.2 90 0.8 NE 28 37 15 20 1013.0 1013.0 8.6
30/07:30am 12.0 6.8 10.2 89 0.9 NE 28 37 15 20 1012.9 1012.9 8.6
30/07:00am 11.8 6.6 10.2 90 0.8 NE 28 39 15 21 1012.8 1012.8 8.4
30/06:30am 11.6 6.4 10.2 91 0.7 NE 28 37 15 20 1012.7 1012.7 8.2
30/06:00am 11.7 6.5 10.4 92 0.7 NE 28 39 15 21 1012.6 1012.6 8.2
30/05:30am 11.8 5.3 10.4 91 0.7 NE 35 44 19 24 1013.0 1013.0 8.2
30/05:00am 11.8 4.9 10.4 91 0.7 NNE 37 46 20 25 1012.9 1012.9 7.0
30/04:30am 11.9 5.8 10.5 91 0.7 NNE 33 41 18 22 1013.0 1013.0 5.2
30/04:00am 12.2 5.0 10.6 90 0.8 NNE 39 54 21 29 1012.9 1012.9 3.8
30/03:30am 12.3 5.8 10.5 89 0.9 NNE 35 46 19 25 1012.8 1012.8 3.2
30/03:00am 12.1 5.2 10.2 88 1.0 NNE 37 50 20 27 1012.8 1012.8 2.4
30/02:30am 11.9 5.7 10.0 88 1.0 NE 33 43 18 23 1013.0 1013.0 1.8
30/02:00am 12.3 5.2 9.5 83 1.4 NE 37 46 20 25 1013.4 1013.4 1.0
30/01:30am 13.1 6.0 9.4 78 1.9 NE 37 48 20 26 1013.7 1013.7 1.0
30/01:00am 13.3 7.1 9.2 76 2.1 NE 32 43 17 23 1013.9 1013.9 1.0
30/12:30am 13.6 6.9 9.5 76 2.1 NE 35 46 19 25 1014.0 1014.0 1.0
30/12:14am 13.5 6.8 9.6 77 2.0 NNE 35 54 19 29 1014.3 1014.3 1.0
30/12:00am 13.4 6.3 9.6 78 1.9 NNE 37 46 20 25 1014.3 1014.3 1.0
 
Date/Time
CST
Temp
°C
App
Temp
°C
Dew
Point
°C
Rel
Hum
%
Delta-T
°C
Wind Press
QNH
hPa
Press
MSL
hPa
Rain since
9am
mm
Dir  Spd
km/h
Gust
km/h
Spd
kts
Gust
kts
29/11:30pm 13.5 7.3 9.9 79 1.9 NNE 33 43 18 23 1014.7 1014.7 1.0
29/11:00pm 13.9 7.6 9.7 76 2.2 NNE 33 41 18 22 1014.9 1014.9 0.8
29/10:30pm 15.1 6.5 8.3 64 3.4 NNE 43 57 23 31 1014.0 1014.0 0.6
29/10:03pm 14.4 8.0 8.4 67 3.0 NNE 32 52 17 28 1013.8 1013.8 0.6
29/10:00pm 14.2 8.1 8.2 67 3.0 NNE 30 41 16 22 1014.1 1014.1 0.6
29/09:30pm 13.5 9.7 9.0 74 2.3 NNE 19 24 10 13 1014.7 1014.7 0.6
29/09:00pm 14.1 10.0 8.5 69 2.8 NNE 20 28 11 15 1015.0 1015.0 0.2
29/08:30pm 15.9 10.7 7.1 56 4.3 NNE 24 33 13 18 1015.1 1015.1 0.0
29/08:00pm 15.9 12.1 7.4 57 4.2 NE 17 24 9 13 1014.8 1014.8 0.0
29/07:30pm 15.7 11.6 8.0 60 3.9 NE 19 22 10 12 1014.8 1014.8 0.0
29/07:00pm 15.5 11.2 8.0 61 3.8 NE 20 24 11 13 1014.5 1014.5 0.0
29/06:30pm 15.5 10.9 8.0 61 3.8 NE 22 26 12 14 1013.9 1013.9 0.0
29/06:00pm 16.0 10.9 7.7 58 4.2 ENE 24 30 13 16 1013.3 1013.3 0.0
29/05:30pm 16.2 11.2 7.9 58 4.2 ENE 24 28 13 15 1013.1 1013.1 0.0
29/05:00pm 16.5 11.0 7.7 56 4.4 ENE 26 33 14 18 1012.8 1012.8 0.0
29/04:30pm 16.9 11.5 7.8 55 4.6 ENE 26 32 14 17 1013.4 1013.4 0.0
29/04:00pm 17.2 12.2 8.1 55 4.6 ENE 24 28 13 15 1013.4 1013.4 0.0
29/03:30pm 17.4 12.1 8.5 56 4.6 NE 26 32 14 17 1013.7 1013.7 0.0
29/03:00pm 17.4 11.2 7.7 53 4.9 ENE 30 35 16 19 1013.9 1013.9 0.0
29/02:30pm 16.8 11.4 8.2 57 4.4 NE 26 32 14 17 1014.3 1014.3 0.0
29/02:00pm 16.4 10.5 7.6 56 4.4 NE 28 33 15 18 1014.7 1014.7 0.0
29/01:30pm 15.5 10.5 8.0 61 3.8 NE 24 30 13 16 1015.0 1015.0 0.0
29/01:00pm 15.2 9.9 7.0 58 4.0 NE 24 32 13 17 1015.5 1015.5 0.0
29/12:30pm 14.8 10.0 7.4 61 3.6 NE 22 28 12 15 1016.1 1016.1 0.0
29/12:00pm 14.9 9.5 6.5 57 4.1 NE 24 30 13 16 1016.4 1016.4 0.0
29/11:30am 14.9 9.0 6.0 55 4.3 NE 26 35 14 19 1017.0 1017.0 0.0
29/11:00am 15.6 9.7 5.8 52 4.7 NE 26 33 14 18 1017.0 1017.0 0.0
29/10:30am 14.9 8.9 5.4 53 4.5 NE 26 35 14 19 1017.0 1017.0 0.0
29/10:00am 15.0 9.3 6.6 57 4.1 ENE 26 32 14 17 1017.3 1017.3 0.0
29/09:30am 14.4 8.6 6.3 58 3.9 ENE 26 32 14 17 1017.4 1017.4 0.0
29/09:00am 12.8 8.2 6.4 65 3.0 ENE 20 24 11 13 1018.0 1018.0 0.0
29/08:30am 11.7 7.1 5.8 67 2.7 ENE 19 22 10 12 1018.1 1018.1 0.0
29/08:00am 10.8 6.5 5.3 69 2.5 ENE 17 20 9 11 1018.1 1018.1 0.0
29/07:30am 10.4 5.6 4.8 68 2.5 ENE 19 22 10 12 1018.0 1018.0 0.0
29/07:00am 10.3 5.4 4.9 69 2.4 ENE 20 24 11 13 1017.5 1017.5 0.0
29/06:30am 9.9 4.9 4.5 69 2.4 ENE 20 24 11 13 1017.2 1017.2 0.0
29/06:00am 9.9 5.0 4.3 68 2.5 ENE 19 22 10 12 1016.9 1016.9 0.0
29/05:30am 10.3 5.2 4.2 66 2.7 ENE 20 22 11 12 1016.9 1016.9 0.0
29/05:00am 10.4 5.3 4.3 66 2.7 ENE 20 26 11 14 1016.6 1016.6 0.0
29/04:30am 10.4 5.5 4.3 66 2.7 ENE 19 22 10 12 1016.7 1016.7 0.0
29/04:00am 11.4 6.6 4.4 62 3.2 ENE 19 20 10 11 1016.7 1016.7 0.0
29/03:30am 11.5 6.5 4.7 63 3.1 ENE 20 24 11 13 1016.5 1016.5 0.0
29/03:00am 11.4 6.6 4.8 64 3.0 ENE 19 22 10 12 1016.5 1016.5 0.0
29/02:30am 12.2 7.1 4.2 58 3.6 ENE 20 26 11 14 1016.6 1016.6 0.0
29/02:00am 12.3 7.2 4.0 57 3.7 NE 20 24 11 13 1016.9 1016.9 0.0
29/01:30am 13.1 7.6 4.0 54 4.1 NE 22 28 12 15 1017.1 1017.1 0.0
29/01:00am 11.6 7.7 5.5 66 2.8 ENE 15 19 8 10 1017.0 1017.0 0.0
29/12:30am 12.0 7.6 4.5 60 3.4 NE 17 28 9 15 1017.0 1017.0 0.0
29/12:00am 12.5 7.7 4.5 58 3.6 NE 19 24 10 13 1016.7 1016.7 0.0
 
Date/Time
CST
Temp
°C
App
Temp
°C
Dew
Point
°C
Rel
Hum
%
Delta-T
°C
Wind Press
QNH
hPa
Press
MSL
hPa
Rain since
9am
mm
Dir  Spd
km/h
Gust
km/h
Spd
kts
Gust
kts
28/11:30pm 12.7 8.3 4.9 59 3.6 NE 17 22 9 12 1016.7 1016.7 0.0
28/11:00pm 12.3 6.8 6.1 66 2.9 NE 24 28 13 15 1016.1 1016.1 0.0
28/10:30pm 12.2 7.2 6.3 67 2.8 ENE 22 26 12 14 1016.4 1016.4 0.0
28/10:00pm 12.5 7.5 6.5 67 2.9 NE 22 26 12 14 1016.6 1016.6 0.0
28/09:30pm 12.4 7.8 6.5 67 2.8 ENE 20 24 11 13 1016.7 1016.7 0.0
28/09:00pm 12.7 7.8 6.7 67 2.9 ENE 22 26 12 14 1016.8 1016.8 0.0
28/08:30pm 12.6 8.1 7.1 69 2.6 ENE 20 24 11 13 1016.8 1016.8 0.0
28/08:00pm 13.0 8.4 6.6 65 3.1 ENE 20 24 11 13 1016.5 1016.5 0.0
28/07:30pm 13.4 9.1 7.2 66 3.0 ENE 19 20 10 11 1016.3 1016.3 0.0
28/07:00pm 13.3 9.4 7.3 67 2.9 ENE 17 20 9 11 1016.1 1016.1 0.0
28/06:30pm 13.9 10.1 7.4 65 3.2 ENE 17 20 9 11 1015.9 1015.9 0.0
28/06:00pm 14.8 10.6 7.4 61 3.6 ENE 19 22 10 12 1015.5 1015.5 0.0

Other Formats:

Comma delimited format used in spreadsheet applications
http://www.bom.gov.au/fwo/IDS60801/IDS60801.94813.axf

JavaScript Object Notation format (JSON) in row-major order
http://www.bom.gov.au/fwo/IDS60801/IDS60801.94813.json